sensor_id;sensor_type;location;lat;lon;timestamp;P1;durP1;ratioP1;P2;durP2;ratioP2
37877;SDS011;23715;53.652;8.516;2023-06-10T00:01:34;14.33;;;7.12;;
37877;SDS011;23715;53.652;8.516;2023-06-10T00:06:35;15.05;;;7.62;;
37877;SDS011;23715;53.652;8.516;2023-06-10T00:11:35;12.40;;;8.10;;
37877;SDS011;23715;53.652;8.516;2023-06-10T00:16:37;12.63;;;7.67;;
37877;SDS011;23715;53.652;8.516;2023-06-10T00:21:37;13.08;;;7.72;;
37877;SDS011;23715;53.652;8.516;2023-06-10T00:26:41;12.80;;;7.50;;
37877;SDS011;23715;53.652;8.516;2023-06-10T00:31:44;9.93;;;7.22;;
37877;SDS011;23715;53.652;8.516;2023-06-10T00:41:44;12.03;;;7.92;;
37877;SDS011;23715;53.652;8.516;2023-06-10T00:46:45;14.97;;;7.30;;
37877;SDS011;23715;53.652;8.516;2023-06-10T00:51:51;12.78;;;7.75;;
37877;SDS011;23715;53.652;8.516;2023-06-10T00:56:54;11.22;;;7.87;;
37877;SDS011;23715;53.652;8.516;2023-06-10T01:01:58;13.80;;;7.62;;
37877;SDS011;23715;53.652;8.516;2023-06-10T01:07:20;13.53;;;7.85;;
37877;SDS011;23715;53.652;8.516;2023-06-10T01:12:39;12.73;;;8.10;;
37877;SDS011;23715;53.652;8.516;2023-06-10T01:17:55;14.13;;;9.03;;
37877;SDS011;23715;53.652;8.516;2023-06-10T01:22:59;12.75;;;8.90;;
37877;SDS011;23715;53.652;8.516;2023-06-10T01:28:13;19.10;;;9.00;;
37877;SDS011;23715;53.652;8.516;2023-06-10T01:33:17;11.73;;;8.88;;
37877;SDS011;23715;53.652;8.516;2023-06-10T01:38:21;16.17;;;8.33;;
37877;SDS011;23715;53.652;8.516;2023-06-10T01:43:25;13.58;;;8.55;;
37877;SDS011;23715;53.652;8.516;2023-06-10T01:48:26;12.95;;;9.25;;
37877;SDS011;23715;53.652;8.516;2023-06-10T01:53:26;15.30;;;9.38;;
37877;SDS011;23715;53.652;8.516;2023-06-10T01:58:27;14.53;;;9.45;;
37877;SDS011;23715;53.652;8.516;2023-06-10T02:08:28;15.95;;;10.08;;
37877;SDS011;23715;53.652;8.516;2023-06-10T02:13:30;14.53;;;9.25;;
37877;SDS011;23715;53.652;8.516;2023-06-10T02:18:33;13.32;;;8.80;;
37877;SDS011;23715;53.652;8.516;2023-06-10T02:23:36;13.38;;;8.80;;
37877;SDS011;23715;53.652;8.516;2023-06-10T02:28:36;12.60;;;9.47;;
37877;SDS011;23715;53.652;8.516;2023-06-10T02:33:38;17.27;;;9.25;;
37877;SDS011;23715;53.652;8.516;2023-06-10T02:38:39;15.55;;;10.40;;
37877;SDS011;23715;53.652;8.516;2023-06-10T02:43:41;17.30;;;9.43;;
37877;SDS011;23715;53.652;8.516;2023-06-10T02:48:43;17.48;;;9.38;;
37877;SDS011;23715;53.652;8.516;2023-06-10T02:53:46;14.83;;;9.38;;
37877;SDS011;23715;53.652;8.516;2023-06-10T02:58:50;15.65;;;9.10;;
37877;SDS011;23715;53.652;8.516;2023-06-10T03:03:51;14.80;;;9.45;;
37877;SDS011;23715;53.652;8.516;2023-06-10T03:08:52;13.00;;;8.78;;
37877;SDS011;23715;53.652;8.516;2023-06-10T03:13:53;11.43;;;8.75;;
37877;SDS011;23715;53.652;8.516;2023-06-10T03:18:58;13.55;;;9.28;;
37877;SDS011;23715;53.652;8.516;2023-06-10T03:24:00;17.82;;;9.58;;
37877;SDS011;23715;53.652;8.516;2023-06-10T03:29:02;15.75;;;9.90;;
37877;SDS011;23715;53.652;8.516;2023-06-10T03:34:04;17.80;;;9.55;;
37877;SDS011;23715;53.652;8.516;2023-06-10T03:39:04;15.45;;;10.85;;
37877;SDS011;23715;53.652;8.516;2023-06-10T03:44:06;17.90;;;11.93;;
37877;SDS011;23715;53.652;8.516;2023-06-10T03:49:08;16.07;;;11.33;;
37877;SDS011;23715;53.652;8.516;2023-06-10T03:54:10;20.30;;;11.83;;
37877;SDS011;23715;53.652;8.516;2023-06-10T03:59:12;19.85;;;11.25;;
37877;SDS011;23715;53.652;8.516;2023-06-10T04:04:14;17.75;;;12.40;;
37877;SDS011;23715;53.652;8.516;2023-06-10T04:09:17;15.95;;;12.25;;
37877;SDS011;23715;53.652;8.516;2023-06-10T04:14:19;19.42;;;14.83;;
37877;SDS011;23715;53.652;8.516;2023-06-10T04:19:21;15.98;;;14.28;;
37877;SDS011;23715;53.652;8.516;2023-06-10T04:24:22;17.02;;;15.25;;
37877;SDS011;23715;53.652;8.516;2023-06-10T04:29:25;19.07;;;16.83;;
37877;SDS011;23715;53.652;8.516;2023-06-10T04:34:27;20.05;;;17.98;;
37877;SDS011;23715;53.652;8.516;2023-06-10T04:39:28;21.62;;;19.42;;
37877;SDS011;23715;53.652;8.516;2023-06-10T04:44:29;20.70;;;19.05;;
37877;SDS011;23715;53.652;8.516;2023-06-10T04:49:29;20.72;;;18.92;;
37877;SDS011;23715;53.652;8.516;2023-06-10T04:54:30;22.62;;;20.95;;
37877;SDS011;23715;53.652;8.516;2023-06-10T04:59:30;23.57;;;21.42;;
37877;SDS011;23715;53.652;8.516;2023-06-10T05:04:34;25.50;;;23.55;;
37877;SDS011;23715;53.652;8.516;2023-06-10T05:09:35;27.98;;;25.27;;
37877;SDS011;23715;53.652;8.516;2023-06-10T05:14:35;25.90;;;23.50;;
37877;SDS011;23715;53.652;8.516;2023-06-10T05:19:35;28.75;;;26.00;;
37877;SDS011;23715;53.652;8.516;2023-06-10T05:24:36;27.77;;;25.68;;
37877;SDS011;23715;53.652;8.516;2023-06-10T05:29:37;29.80;;;27.37;;
37877;SDS011;23715;53.652;8.516;2023-06-10T05:34:38;30.25;;;28.05;;
37877;SDS011;23715;53.652;8.516;2023-06-10T05:44:39;30.40;;;28.10;;
37877;SDS011;23715;53.652;8.516;2023-06-10T05:49:40;29.57;;;27.35;;
37877;SDS011;23715;53.652;8.516;2023-06-10T05:54:48;27.37;;;25.17;;
37877;SDS011;23715;53.652;8.516;2023-06-10T05:59:51;27.27;;;25.25;;
37877;SDS011;23715;53.652;8.516;2023-06-10T06:04:56;27.58;;;25.27;;
37877;SDS011;23715;53.652;8.516;2023-06-10T06:10:01;26.43;;;24.13;;
37877;SDS011;23715;53.652;8.516;2023-06-10T06:15:01;26.37;;;24.12;;
37877;SDS011;23715;53.652;8.516;2023-06-10T06:20:04;27.15;;;25.02;;
37877;SDS011;23715;53.652;8.516;2023-06-10T06:25:08;27.53;;;24.83;;
37877;SDS011;23715;53.652;8.516;2023-06-10T06:30:15;28.02;;;25.75;;
37877;SDS011;23715;53.652;8.516;2023-06-10T06:40:24;24.37;;;22.58;;
37877;SDS011;23715;53.652;8.516;2023-06-10T06:45:32;23.95;;;21.93;;
37877;SDS011;23715;53.652;8.516;2023-06-10T06:50:36;24.63;;;22.35;;
37877;SDS011;23715;53.652;8.516;2023-06-10T06:55:36;25.17;;;23.42;;
37877;SDS011;23715;53.652;8.516;2023-06-10T07:00:38;22.60;;;20.75;;
37877;SDS011;23715;53.652;8.516;2023-06-10T07:05:40;26.87;;;24.45;;
37877;SDS011;23715;53.652;8.516;2023-06-10T07:10:41;24.15;;;22.15;;
37877;SDS011;23715;53.652;8.516;2023-06-10T07:15:44;24.07;;;21.95;;
37877;SDS011;23715;53.652;8.516;2023-06-10T07:20:51;22.42;;;20.82;;
37877;SDS011;23715;53.652;8.516;2023-06-10T07:25:51;23.02;;;21.17;;
37877;SDS011;23715;53.652;8.516;2023-06-10T07:30:52;22.10;;;20.40;;
37877;SDS011;23715;53.652;8.516;2023-06-10T07:35:53;24.37;;;22.22;;
37877;SDS011;23715;53.652;8.516;2023-06-10T07:40:54;21.68;;;19.73;;
37877;SDS011;23715;53.652;8.516;2023-06-10T07:45:54;23.98;;;22.02;;
37877;SDS011;23715;53.652;8.516;2023-06-10T07:50:58;22.02;;;20.20;;
37877;SDS011;23715;53.652;8.516;2023-06-10T07:55:56;21.20;;;19.40;;
37877;SDS011;23715;53.652;8.516;2023-06-10T08:01:02;23.12;;;18.87;;
37877;SDS011;23715;53.652;8.516;2023-06-10T08:06:04;21.37;;;19.32;;
37877;SDS011;23715;53.652;8.516;2023-06-10T08:11:17;18.82;;;17.25;;
37877;SDS011;23715;53.652;8.516;2023-06-10T08:16:16;20.02;;;18.12;;
37877;SDS011;23715;53.652;8.516;2023-06-10T08:21:16;19.50;;;17.65;;
37877;SDS011;23715;53.652;8.516;2023-06-10T08:26:20;17.65;;;16.02;;
37877;SDS011;23715;53.652;8.516;2023-06-10T08:31:20;20.57;;;18.62;;
37877;SDS011;23715;53.652;8.516;2023-06-10T08:36:25;21.50;;;19.62;;
37877;SDS011;23715;53.652;8.516;2023-06-10T08:41:30;19.35;;;17.65;;
37877;SDS011;23715;53.652;8.516;2023-06-10T08:46:32;19.05;;;16.52;;
37877;SDS011;23715;53.652;8.516;2023-06-10T08:51:40;19.35;;;17.20;;
37877;SDS011;23715;53.652;8.516;2023-06-10T08:56:55;17.87;;;16.20;;
37877;SDS011;23715;53.652;8.516;2023-06-10T09:01:58;18.55;;;15.90;;
37877;SDS011;23715;53.652;8.516;2023-06-10T09:07:02;18.02;;;16.23;;
37877;SDS011;23715;53.652;8.516;2023-06-10T09:12:04;16.55;;;14.58;;
37877;SDS011;23715;53.652;8.516;2023-06-10T09:17:07;20.52;;;17.55;;
37877;SDS011;23715;53.652;8.516;2023-06-10T09:22:09;17.70;;;15.88;;
37877;SDS011;23715;53.652;8.516;2023-06-10T09:27:12;16.00;;;14.43;;
37877;SDS011;23715;53.652;8.516;2023-06-10T09:32:18;15.55;;;13.93;;
37877;SDS011;23715;53.652;8.516;2023-06-10T09:37:22;16.87;;;15.30;;
37877;SDS011;23715;53.652;8.516;2023-06-10T09:42:25;18.92;;;16.60;;
37877;SDS011;23715;53.652;8.516;2023-06-10T09:52:27;13.30;;;11.60;;
37877;SDS011;23715;53.652;8.516;2023-06-10T09:57:32;15.75;;;14.25;;
37877;SDS011;23715;53.652;8.516;2023-06-10T10:02:46;14.25;;;12.85;;
37877;SDS011;23715;53.652;8.516;2023-06-10T10:07:48;17.65;;;14.33;;
37877;SDS011;23715;53.652;8.516;2023-06-10T10:12:55;14.53;;;13.08;;
37877;SDS011;23715;53.652;8.516;2023-06-10T10:17:58;15.63;;;13.05;;
37877;SDS011;23715;53.652;8.516;2023-06-10T10:23:06;17.27;;;12.68;;
37877;SDS011;23715;53.652;8.516;2023-06-10T10:28:16;17.10;;;14.03;;
37877;SDS011;23715;53.652;8.516;2023-06-10T10:33:20;14.00;;;12.55;;
37877;SDS011;23715;53.652;8.516;2023-06-10T10:38:33;14.60;;;13.18;;
37877;SDS011;23715;53.652;8.516;2023-06-10T10:43:32;17.52;;;12.85;;
37877;SDS011;23715;53.652;8.516;2023-06-10T10:48:35;12.65;;;11.45;;
37877;SDS011;23715;53.652;8.516;2023-06-10T10:53:42;13.88;;;11.57;;
37877;SDS011;23715;53.652;8.516;2023-06-10T10:58:40;14.43;;;13.10;;
37877;SDS011;23715;53.652;8.516;2023-06-10T11:03:48;12.58;;;11.22;;
37877;SDS011;23715;53.652;8.516;2023-06-10T11:09:02;13.50;;;12.28;;
37877;SDS011;23715;53.652;8.516;2023-06-10T11:19:31;14.10;;;12.73;;
37877;SDS011;23715;53.652;8.516;2023-06-10T11:24:29;13.40;;;12.28;;
37877;SDS011;23715;53.652;8.516;2023-06-10T11:29:36;15.08;;;13.03;;
37877;SDS011;23715;53.652;8.516;2023-06-10T11:34:36;14.23;;;13.00;;
37877;SDS011;23715;53.652;8.516;2023-06-10T11:39:45;15.20;;;13.75;;
37877;SDS011;23715;53.652;8.516;2023-06-10T11:44:51;13.72;;;12.60;;
37877;SDS011;23715;53.652;8.516;2023-06-10T11:49:56;15.20;;;13.18;;
37877;SDS011;23715;53.652;8.516;2023-06-10T11:55:02;14.53;;;13.25;;
37877;SDS011;23715;53.652;8.516;2023-06-10T12:00:06;14.15;;;13.13;;
37877;SDS011;23715;53.652;8.516;2023-06-10T12:05:14;14.00;;;12.90;;
37877;SDS011;23715;53.652;8.516;2023-06-10T12:10:20;14.53;;;13.40;;
37877;SDS011;23715;53.652;8.516;2023-06-10T12:15:24;13.58;;;12.53;;
37877;SDS011;23715;53.652;8.516;2023-06-10T12:20:28;13.80;;;12.80;;
37877;SDS011;23715;53.652;8.516;2023-06-10T12:25:35;15.83;;;14.63;;
37877;SDS011;23715;53.652;8.516;2023-06-10T12:30:38;13.88;;;12.98;;
37877;SDS011;23715;53.652;8.516;2023-06-10T12:35:46;15.23;;;13.75;;
37877;SDS011;23715;53.652;8.516;2023-06-10T12:40:46;14.15;;;12.85;;
37877;SDS011;23715;53.652;8.516;2023-06-10T12:45:47;14.30;;;12.68;;
37877;SDS011;23715;53.652;8.516;2023-06-10T12:56:00;13.62;;;12.43;;
37877;SDS011;23715;53.652;8.516;2023-06-10T13:01:02;13.48;;;12.45;;
37877;SDS011;23715;53.652;8.516;2023-06-10T13:06:04;13.03;;;11.93;;
37877;SDS011;23715;53.652;8.516;2023-06-10T13:11:07;13.78;;;12.63;;
37877;SDS011;23715;53.652;8.516;2023-06-10T13:16:09;13.20;;;11.85;;
37877;SDS011;23715;53.652;8.516;2023-06-10T13:21:11;13.25;;;12.10;;
37877;SDS011;23715;53.652;8.516;2023-06-10T13:26:13;12.45;;;11.35;;
37877;SDS011;23715;53.652;8.516;2023-06-10T13:31:18;13.20;;;12.13;;
37877;SDS011;23715;53.652;8.516;2023-06-10T13:36:25;12.98;;;11.95;;
37877;SDS011;23715;53.652;8.516;2023-06-10T13:41:24;11.70;;;10.80;;
37877;SDS011;23715;53.652;8.516;2023-06-10T13:46:27;12.25;;;11.25;;
37877;SDS011;23715;53.652;8.516;2023-06-10T13:51:36;13.20;;;11.70;;
37877;SDS011;23715;53.652;8.516;2023-06-10T13:56:39;13.65;;;11.48;;
37877;SDS011;23715;53.652;8.516;2023-06-10T14:01:45;11.28;;;10.13;;
37877;SDS011;23715;53.652;8.516;2023-06-10T14:06:47;11.15;;;9.95;;
37877;SDS011;23715;53.652;8.516;2023-06-10T14:11:48;11.08;;;10.13;;
37877;SDS011;23715;53.652;8.516;2023-06-10T14:16:54;13.30;;;11.47;;
37877;SDS011;23715;53.652;8.516;2023-06-10T14:21:55;12.35;;;10.95;;
37877;SDS011;23715;53.652;8.516;2023-06-10T14:26:57;13.37;;;12.13;;
37877;SDS011;23715;53.652;8.516;2023-06-10T14:31:59;13.83;;;12.28;;
37877;SDS011;23715;53.652;8.516;2023-06-10T14:37:01;12.90;;;11.50;;
37877;SDS011;23715;53.652;8.516;2023-06-10T14:42:03;12.40;;;11.20;;
37877;SDS011;23715;53.652;8.516;2023-06-10T14:47:05;14.80;;;12.60;;
37877;SDS011;23715;53.652;8.516;2023-06-10T14:52:08;12.40;;;11.22;;
37877;SDS011;23715;53.652;8.516;2023-06-10T14:57:09;13.95;;;12.50;;
37877;SDS011;23715;53.652;8.516;2023-06-10T15:02:16;13.93;;;12.43;;
37877;SDS011;23715;53.652;8.516;2023-06-10T15:07:13;12.40;;;11.47;;
37877;SDS011;23715;53.652;8.516;2023-06-10T15:12:18;13.70;;;12.45;;
37877;SDS011;23715;53.652;8.516;2023-06-10T15:17:20;13.48;;;12.25;;
37877;SDS011;23715;53.652;8.516;2023-06-10T15:22:22;13.40;;;12.15;;
37877;SDS011;23715;53.652;8.516;2023-06-10T15:27:24;14.98;;;12.05;;
37877;SDS011;23715;53.652;8.516;2023-06-10T15:32:24;14.20;;;13.03;;
37877;SDS011;23715;53.652;8.516;2023-06-10T15:37:24;14.00;;;12.65;;
37877;SDS011;23715;53.652;8.516;2023-06-10T15:42:26;14.18;;;12.78;;
37877;SDS011;23715;53.652;8.516;2023-06-10T15:47:26;14.27;;;12.87;;
37877;SDS011;23715;53.652;8.516;2023-06-10T15:52:27;16.07;;;14.15;;
37877;SDS011;23715;53.652;8.516;2023-06-10T15:57:27;14.58;;;13.28;;
37877;SDS011;23715;53.652;8.516;2023-06-10T16:02:28;15.38;;;14.00;;
37877;SDS011;23715;53.652;8.516;2023-06-10T16:07:31;15.25;;;13.53;;
37877;SDS011;23715;53.652;8.516;2023-06-10T16:12:38;16.50;;;15.05;;
37877;SDS011;23715;53.652;8.516;2023-06-10T16:17:34;14.87;;;13.65;;
37877;SDS011;23715;53.652;8.516;2023-06-10T16:22:36;17.35;;;13.78;;
37877;SDS011;23715;53.652;8.516;2023-06-10T16:27:36;15.98;;;12.75;;
37877;SDS011;23715;53.652;8.516;2023-06-10T16:32:39;19.37;;;13.35;;
37877;SDS011;23715;53.652;8.516;2023-06-10T16:37:49;14.18;;;12.78;;
37877;SDS011;23715;53.652;8.516;2023-06-10T16:42:50;14.20;;;12.82;;
37877;SDS011;23715;53.652;8.516;2023-06-10T16:47:56;14.38;;;12.98;;
37877;SDS011;23715;53.652;8.516;2023-06-10T16:53:02;15.38;;;13.22;;
37877;SDS011;23715;53.652;8.516;2023-06-10T16:57:58;16.10;;;13.50;;
37877;SDS011;23715;53.652;8.516;2023-06-10T17:02:58;13.60;;;12.30;;
37877;SDS011;23715;53.652;8.516;2023-06-10T17:08:00;13.38;;;12.10;;
37877;SDS011;23715;53.652;8.516;2023-06-10T17:13:04;12.80;;;11.25;;
37877;SDS011;23715;53.652;8.516;2023-06-10T17:18:05;14.05;;;12.53;;
37877;SDS011;23715;53.652;8.516;2023-06-10T17:23:09;13.68;;;12.07;;
37877;SDS011;23715;53.652;8.516;2023-06-10T17:28:10;12.75;;;11.45;;
37877;SDS011;23715;53.652;8.516;2023-06-10T17:33:10;15.38;;;11.97;;
37877;SDS011;23715;53.652;8.516;2023-06-10T17:38:19;11.63;;;10.38;;
37877;SDS011;23715;53.652;8.516;2023-06-10T17:43:20;12.10;;;10.80;;
37877;SDS011;23715;53.652;8.516;2023-06-10T17:48:25;11.97;;;10.90;;
37877;SDS011;23715;53.652;8.516;2023-06-10T17:53:25;16.82;;;10.28;;
37877;SDS011;23715;53.652;8.516;2023-06-10T17:58:25;13.27;;;10.83;;
37877;SDS011;23715;53.652;8.516;2023-06-10T18:03:26;14.23;;;11.30;;
37877;SDS011;23715;53.652;8.516;2023-06-10T18:08:26;14.35;;;10.93;;
37877;SDS011;23715;53.652;8.516;2023-06-10T18:13:26;12.30;;;11.10;;
37877;SDS011;23715;53.652;8.516;2023-06-10T18:18:27;12.75;;;10.65;;
37877;SDS011;23715;53.652;8.516;2023-06-10T18:23:35;18.25;;;11.57;;
37877;SDS011;23715;53.652;8.516;2023-06-10T18:28:32;12.78;;;10.30;;
37877;SDS011;23715;53.652;8.516;2023-06-10T18:33:38;11.35;;;10.15;;
37877;SDS011;23715;53.652;8.516;2023-06-10T18:38:41;12.90;;;11.40;;
37877;SDS011;23715;53.652;8.516;2023-06-10T18:43:45;14.37;;;11.37;;
37877;SDS011;23715;53.652;8.516;2023-06-10T18:48:46;17.98;;;10.30;;
37877;SDS011;23715;53.652;8.516;2023-06-10T18:53:49;11.88;;;10.82;;
37877;SDS011;23715;53.652;8.516;2023-06-10T18:58:53;12.63;;;10.25;;
37877;SDS011;23715;53.652;8.516;2023-06-10T19:04:00;11.60;;;10.40;;
37877;SDS011;23715;53.652;8.516;2023-06-10T19:09:00;25.40;;;10.53;;
37877;SDS011;23715;53.652;8.516;2023-06-10T19:14:01;11.90;;;10.40;;
37877;SDS011;23715;53.652;8.516;2023-06-10T19:19:05;13.03;;;10.03;;
37877;SDS011;23715;53.652;8.516;2023-06-10T19:24:07;12.85;;;10.82;;
37877;SDS011;23715;53.652;8.516;2023-06-10T19:29:10;13.03;;;11.13;;
37877;SDS011;23715;53.652;8.516;2023-06-10T19:34:19;14.20;;;11.18;;
37877;SDS011;23715;53.652;8.516;2023-06-10T19:39:20;16.97;;;10.77;;
37877;SDS011;23715;53.652;8.516;2023-06-10T19:44:22;10.78;;;9.73;;
37877;SDS011;23715;53.652;8.516;2023-06-10T19:49:26;12.63;;;10.38;;
37877;SDS011;23715;53.652;8.516;2023-06-10T19:54:29;11.88;;;10.68;;
37877;SDS011;23715;53.652;8.516;2023-06-10T19:59:38;11.07;;;9.97;;
37877;SDS011;23715;53.652;8.516;2023-06-10T20:04:39;16.67;;;10.60;;
37877;SDS011;23715;53.652;8.516;2023-06-10T20:09:43;14.80;;;10.48;;
37877;SDS011;23715;53.652;8.516;2023-06-10T20:14:45;11.57;;;10.00;;
37877;SDS011;23715;53.652;8.516;2023-06-10T20:19:45;14.70;;;10.93;;
37877;SDS011;23715;53.652;8.516;2023-06-10T20:24:50;11.88;;;10.78;;
37877;SDS011;23715;53.652;8.516;2023-06-10T20:29:51;11.08;;;10.10;;
37877;SDS011;23715;53.652;8.516;2023-06-10T20:34:56;11.22;;;9.65;;
37877;SDS011;23715;53.652;8.516;2023-06-10T20:40:02;13.38;;;10.53;;
37877;SDS011;23715;53.652;8.516;2023-06-10T20:45:21;12.75;;;10.90;;
37877;SDS011;23715;53.652;8.516;2023-06-10T20:50:19;12.03;;;10.07;;
37877;SDS011;23715;53.652;8.516;2023-06-10T20:55:20;11.93;;;10.72;;
37877;SDS011;23715;53.652;8.516;2023-06-10T21:00:24;11.57;;;10.48;;
37877;SDS011;23715;53.652;8.516;2023-06-10T21:05:36;15.18;;;10.68;;
37877;SDS011;23715;53.652;8.516;2023-06-10T21:10:43;12.37;;;11.15;;
37877;SDS011;23715;53.652;8.516;2023-06-10T21:20:44;12.53;;;10.60;;
37877;SDS011;23715;53.652;8.516;2023-06-10T21:25:45;12.25;;;10.53;;
37877;SDS011;23715;53.652;8.516;2023-06-10T21:30:45;14.60;;;10.45;;
37877;SDS011;23715;53.652;8.516;2023-06-10T21:35:45;13.32;;;11.55;;
37877;SDS011;23715;53.652;8.516;2023-06-10T21:40:45;14.83;;;10.95;;
37877;SDS011;23715;53.652;8.516;2023-06-10T21:45:46;16.40;;;11.53;;
37877;SDS011;23715;53.652;8.516;2023-06-10T21:50:46;12.23;;;11.03;;
37877;SDS011;23715;53.652;8.516;2023-06-10T21:55:46;12.00;;;10.90;;
37877;SDS011;23715;53.652;8.516;2023-06-10T22:00:47;19.02;;;11.95;;
37877;SDS011;23715;53.652;8.516;2023-06-10T22:05:47;16.25;;;11.00;;
37877;SDS011;23715;53.652;8.516;2023-06-10T22:16:15;12.40;;;11.10;;
37877;SDS011;23715;53.652;8.516;2023-06-10T22:21:16;12.23;;;11.20;;
37877;SDS011;23715;53.652;8.516;2023-06-10T22:26:18;12.43;;;11.12;;
37877;SDS011;23715;53.652;8.516;2023-06-10T22:31:19;13.45;;;11.40;;
37877;SDS011;23715;53.652;8.516;2023-06-10T22:36:19;12.63;;;11.05;;
37877;SDS011;23715;53.652;8.516;2023-06-10T22:41:21;12.82;;;10.45;;
37877;SDS011;23715;53.652;8.516;2023-06-10T22:46:23;12.05;;;10.78;;
37877;SDS011;23715;53.652;8.516;2023-06-10T22:51:24;14.55;;;10.90;;
37877;SDS011;23715;53.652;8.516;2023-06-10T22:56:25;11.93;;;10.30;;
37877;SDS011;23715;53.652;8.516;2023-06-10T23:01:27;12.65;;;11.08;;
37877;SDS011;23715;53.652;8.516;2023-06-10T23:06:30;14.35;;;10.78;;
37877;SDS011;23715;53.652;8.516;2023-06-10T23:16:33;13.60;;;11.48;;
37877;SDS011;23715;53.652;8.516;2023-06-10T23:21:34;11.95;;;10.70;;
37877;SDS011;23715;53.652;8.516;2023-06-10T23:26:37;13.60;;;10.38;;
37877;SDS011;23715;53.652;8.516;2023-06-10T23:31:37;11.35;;;10.25;;
37877;SDS011;23715;53.652;8.516;2023-06-10T23:41:38;15.95;;;10.63;;
37877;SDS011;23715;53.652;8.516;2023-06-10T23:46:39;15.17;;;10.47;;
37877;SDS011;23715;53.652;8.516;2023-06-10T23:51:42;12.65;;;10.00;;
37877;SDS011;23715;53.652;8.516;2023-06-10T23:56:42;10.40;;;9.40;;
